Flight Track Log - Related Links

Times and Time Zones

All times are in EDT time to prevent confusion due to time zone crossing. See the EJA922 flight status page for this flight to view local times or setup timezone preferences in your user account.

Time Position Orientation Groundspeed Altitude Reporting Facility
EDT Latitude Longitude Course Direction KTS MPH feet Rate Location/Type
Sat 11:47:55 AM 43.8044 -92.5786 210° Southwest 253 291 5,900  Level Minneapolis Center
Sat 11:48:56 AM 43.7383 -92.6283 209° Southwest 273 314 9,100 2,732 Climbing Minneapolis Center
Sat 11:49:58 AM 43.6747 -92.6783 210° Southwest 283 326 11,500 2,419 Climbing Minneapolis Center
Sat 11:51:00 AM 43.5808 -92.7878 220° Southwest 338 389 14,100 2,419 Climbing Minneapolis Center
Sat 11:52:00 AM 43.3250 -93.0750 216° Southwest  Level FlightAware Approximate
Sat 11:52:02 AM 43.5008 -92.8775 219° Southwest 369 425 16,500  Level Minneapolis Center
Sat 11:53:03 AM 43.4197 -92.9694 219° Southwest 376 433 18,500 2,000 Climbing Minneapolis Center
Sat 11:54:05 AM 43.3344 -93.0650 219° Southwest 390 449 20,600 1,935 Climbing Minneapolis Center
Sat 11:55:07 AM 43.2464 -93.1631 219° Southwest 403 464 22,500 1,790 Climbing Minneapolis Center
Sat 11:56:09 AM 43.1581 -93.2608 219° Southwest 408 470 24,300 1,902 Climbing Minneapolis Center
Sat 11:57:10 AM 43.0519 -93.3844 220° Southwest 418 481 26,400 1,756 Climbing Minneapolis Center
Sat 11:58:12 AM 42.9667 -93.4967 224° Southwest 424 488 27,900 1,403 Climbing Minneapolis Center
Sat 11:59:14 AM 42.8789 -93.6103 224° Southwest 432 497 29,300 968 Climbing Minneapolis Center
Sat 12:00:16 PM 42.7911 -93.7253 224° Southwest 439 505 29,900 683 Climbing Minneapolis Center
Sat 12:01:17 PM 42.7011 -93.8383 223° Southwest 440 506 30,700 1,073 Climbing Minneapolis Center
Sat 12:02:19 PM 42.5936 -93.9756 223° Southwest 444 511 32,100 1,452 Climbing Minneapolis Center
Sat 12:03:21 PM 42.5056 -94.0869 223° Southwest 440 506 33,700 1,645 Climbing Minneapolis Center
Sat 12:04:23 PM 42.4200 -94.1975 224° Southwest 431 496 35,500 1,122 Climbing Minneapolis Center
Sat 12:05:24 PM 42.3194 -94.3222 223° Southwest 453 521 36,000 732 Climbing Minneapolis Center
Sat 12:06:26 PM 42.2206 -94.4478 223° Southwest 483 556 37,000 1,161 Climbing Minneapolis Center
Sat 12:07:28 PM 42.1200 -94.5719 223° Southwest 489 563 38,400 1,355 Climbing Minneapolis Center
Sat 12:08:30 PM 42.0222 -94.6944 223° Southwest 484 557 39,800 1,366 Climbing Minneapolis Center
Sat 12:09:31 PM 41.9278 -94.8128 223° Southwest 469 540 41,200 1,366 Climbing Minneapolis Center
Sat 12:10:33 PM 41.8333 -94.9272 222° Southwest 461 531 42,600 871 Climbing Minneapolis Center
Sat 12:11:35 PM 41.7411 -95.0411 223° Southwest 453 521 43,000 194 Climbing Minneapolis Center
Sat 12:12:37 PM 41.6267 -95.1814 223° Southwest 460 529 43,000  Level Minneapolis Center
Sat 12:13:38 PM 41.5300 -95.3003 223° Southwest 466 536 43,000 293 Level Minneapolis Center
Sat 12:14:40 PM 41.4314 -95.4178 222° Southwest 473 544 43,600 629 Climbing Minneapolis Center
Sat 12:15:42 PM 41.3342 -95.5344 222° Southwest 472 543 44,300 677 Climbing Minneapolis Center
Sat 12:16:44 PM 41.2419 -95.6464 222° Southwest 466 536 45,000 341 Climbing Minneapolis Center
Sat 12:17:45 PM 41.1414 -95.7514 218° Southwest 463 533 45,000  Level Minneapolis Center
Sat 12:18:47 PM 41.0097 -95.8261 203° Southwest 478 550 45,000  Level Minneapolis Center
Sat 12:19:49 PM 40.8872 -95.8958 203° Southwest 478 550 45,000  Level Minneapolis Center
Sat 12:20:51 PM 40.7636 -95.9647 203° Southwest 478 550 45,000  Level Minneapolis Center
Sat 12:21:52 PM 40.6394 -96.0347 203° Southwest 479 551 45,000  Level Minneapolis Center
Sat 12:22:54 PM 40.4928 -96.1175 203° Southwest 479 551 45,000  Level Minneapolis Center
Sat 12:23:56 PM 40.3703 -96.1856 203° Southwest 479 551 45,000  Level Minneapolis Center
Sat 12:24:58 PM 40.2486 -96.2525 203° Southwest 478 550 45,000  Level Minneapolis Center
Sat 12:26:00 PM 40.1281 -96.3197 203° Southwest 475 547 45,000  Level Minneapolis Center
Sat 12:27:01 PM 40.0067 -96.3847 202° Southwest 473 544 45,000  Level Minneapolis Center
Sat 12:28:03 PM 39.8861 -96.4514 203° Southwest 473 544 45,000  Level Minneapolis Center
Sat 12:29:05 PM 39.7658 -96.5172 203° Southwest 471 542 45,000  Level Minneapolis Center
Sat 12:30:07 PM 39.6206 -96.5958 203° Southwest 471 542 45,000  Level Minneapolis Center
Sat 12:31:09 PM 39.4994 -96.6600 202° Southwest 471 542 45,000  Level Minneapolis Center
Sat 12:32:11 PM 39.3778 -96.7261 203° Southwest 471 542 45,000  Level Minneapolis Center
Sat 12:33:13 PM 39.2550 -96.7922 203° Southwest 473 544 45,000  Level Minneapolis Center
Sat 12:34:15 PM 39.1317 -96.8592 203° Southwest 474 545 45,000  Level Minneapolis Center
Sat 12:35:35 PM 38.9569 -96.9531 203° Southwest 490 564 45,000  Level Kansas City Center
Sat 12:36:35 PM 38.8325 -97.0189 202° Southwest 483 556 45,000  Level Kansas City Center
Sat 12:37:39 PM 38.7086 -97.0850 203° Southwest 479 551 45,000  Level Kansas City Center
Sat 12:38:40 PM 38.5828 -97.1506 202° Southwest 487 560 45,000  Level Kansas City Center
Sat 12:39:40 PM 38.4569 -97.2167 202° Southwest 488 562 45,000  Level Kansas City Center
Sat 12:40:43 PM 38.3303 -97.2819 202° Southwest 489 563 45,000  Level Kansas City Center
Sat 12:41:44 PM 38.2033 -97.3464 202° Southwest 489 563 45,000  Level Kansas City Center
Sat 12:42:48 PM 38.0486 -97.4242 202° Southwest 492 566 45,000  Level Kansas City Center
Sat 12:43:49 PM 37.9267 -97.4919 204° Southwest 489 563 45,000  Level Kansas City Center
Sat 12:44:50 PM 37.7847 -97.5583 200° South 503 579 45,000  Level Kansas City Center
Sat 12:45:53 PM 37.6472 -97.5828 188° South 507 583 45,000  Level Kansas City Center
Sat 12:46:54 PM 37.5100 -97.5997 186° South 507 583 45,000  Level Kansas City Center
Sat 12:47:56 PM 37.3733 -97.6381 193° South 504 580 45,000  Level Kansas City Center
Sat 12:48:57 PM 37.2378 -97.6728 192° South 502 578 45,000  Level Kansas City Center
Sat 12:50:00 PM 37.1006 -97.7092 192° South 502 578 45,000  Level Kansas City Center
Sat 12:51:01 PM 36.9647 -97.7489 193° South 505 581 45,000  Level Kansas City Center
Sat 12:52:03 PM 36.7944 -97.7872 190° South 511 588 45,000  Level Kansas City Center
Sat 12:53:04 PM 36.6589 -97.8244 192° South 503 579 45,000  Level Kansas City Center
Sat 12:54:07 PM 36.5250 -97.8606 192° South 496 571 45,000  Level Kansas City Center
Sat 12:55:07 PM 36.3911 -97.8953 192° South 488 562 45,000  Level Kansas City Center
Sat 12:56:09 PM 36.2481 -97.9319 192° South 494 568 45,000 -585 Level Kansas City Center
Sat 12:57:10 PM 36.1147 -97.9658 192° South 494 568 43,800 -1,476 Descending Kansas City Center
Sat 12:58:15 PM 35.9914 -97.9972 192° South 467 537 41,900 -1,920 Descending Kansas City Center
Sat 12:59:15 PM 35.8706 -98.0283 192° South 451 519 39,800 -2,033 Descending Kansas City Center
Sat 01:00:16 PM 35.7414 -98.0592 191° South 463 533 37,800 -2,064 Descending Kansas City Center
Sat 01:01:20 PM 35.5806 -98.1019 192° South 480 552 35,500 -2,081 Descending Kansas City Center
Sat 01:02:20 PM 35.4408 -98.1364 191° South 501 577 33,500 -1,983 Descending Kansas City Center
Sat 01:03:21 PM 35.3017 -98.1711 192° South 508 585 31,500 -1,935 Descending Kansas City Center
Sat 01:04:24 PM 35.1644 -98.2117 194° South 508 585 29,500 -2,072 Descending Kansas City Center
Sat 01:05:40 PM 34.9794 -98.2794 197° South 504 580 26,700 -1,913 Descending Fort Worth Center
Sat 01:06:42 PM 34.8508 -98.3239 196° South 486 559 25,100 -1,113 Descending Fort Worth Center
Sat 01:07:44 PM 34.7261 -98.3633 195° South 471 542 24,400 -629 Descending Fort Worth Center
Sat 01:08:46 PM 34.6072 -98.4014 195° South 449 517 23,800 -1,268 Descending Fort Worth Center
Sat 01:09:47 PM 34.4761 -98.4444 195° South 435 501 21,800 -1,951 Descending Fort Worth Center
Sat 01:10:49 PM 34.3669 -98.4792 195° South 380 437 19,800 -1,839 Descending Fort Worth Center
Sat 01:11:51 PM 34.2808 -98.5122 198° South 337 388 18,000 -1,790 Descending Fort Worth Center
Sat 01:12:53 PM 34.1925 -98.5444 197° South 319 367 16,100 -1,902 Descending Fort Worth Center
Sat 01:13:54 PM 34.1089 -98.5711 195° South 298 343 14,100 -1,805 Descending Fort Worth Center
Sat 01:14:56 PM 34.0744 -98.4964 119° Southeast 304 350 12,400 -1,258 Descending Fort Worth Center
Sat 01:15:58 PM 34.1400 -98.4853 North 271 312 11,500 -871 Descending Fort Worth Center
Sat 01:17:00 PM 34.2089 -98.5125 342° North 252 290 10,600 -732 Descending Fort Worth Center
Sat 01:18:01 PM 34.2717 -98.5403 340° North 230 265 10,000 -293 Descending Fort Worth Center
Sat 01:19:03 PM 34.2444 -98.5964 240° Southwest 225 259 10,000  Level Fort Worth Center
Sat 01:20:05 PM 34.1803 -98.5792 167° South 246 283 10,000 -48 Level Fort Worth Center
Sat 01:21:07 PM 34.1642 -98.5211 109° East 231 266 9,900 -927 Descending Fort Worth Center
Sat 01:22:08 PM 34.2303 -98.5292 354° North 239 275 8,100 -1,317 Descending Fort Worth Center
Sat 01:23:10 PM 34.2875 -98.5711 329° Northwest 237 273 7,200 -435 Descending Fort Worth Center
Sat 01:24:12 PM 34.2389 -98.6011 207° Southwest 214 246 7,200 -97 Level Fort Worth Center
Sat 01:25:14 PM 34.1803 -98.5792 163° South 226 260 7,000 -1,171 Descending Fort Worth Center
Sat 01:26:15 PM 34.1158 -98.5533 162° South 230 265 4,800 -2,164 Descending Fort Worth Center

Login

Don't have an account? Register now (free) for customized features, flight alerts, and more!